Time;durP1;ratioP1;P1;durP2;ratioP2;P2;SDS_P1;SDS_P2;PMS_P1;PMS_P2;Temp;Humidity;BMP_temperature;BMP_pressure;BME280_temperature;BME280_humidity;BME280_pressure;Samples;Min_cycle;Max_cycle;Signal;HPM_P1;HPM_P2
2022/02/24 00:01:25;;;;;;;12.35;3.67;;;;;;;7.37;85.93;67587.72;4993422;28;20442;-89
2022/02/24 00:03:53;;;;;;;9.38;3.22;;;;;;;7.32;85.53;67590.56;5005315;28;20038;-88
2022/02/24 00:06:22;;;;;;;11.15;4.10;;;;;;;;;;5045032;28;20033;-84
2022/02/24 00:08:48;;;;;;;10.88;3.92;;;;;;;7.33;86.10;67583.16;5047893;28;20072;-89
2022/02/24 00:11:13;;;;;;;14.65;3.83;;;;;;;7.30;84.98;67588.28;5028097;28;20057;-89
2022/02/24 00:13:40;;;;;;;13.75;3.70;;;;;;;7.30;85.09;67577.13;5030690;28;20511;-88
2022/02/24 00:16:07;;;;;;;13.77;3.25;;;;;;;7.26;84.34;67575.25;5030555;28;20074;-88
2022/02/24 00:18:33;;;;;;;12.90;3.63;;;;;;;7.31;85.77;67586.78;5034374;28;20129;-85
2022/02/24 00:21:00;;;;;;;11.63;3.67;;;;;;;7.30;84.39;67585.63;5029951;28;20049;-88
2022/02/24 00:23:30;;;;;;;13.10;3.30;;;;;;;7.31;84.23;67586.78;5034997;28;20121;-87
2022/02/24 00:25:57;;;;;;;10.15;3.47;;;;;;;7.32;83.37;67587.91;5030441;28;20045;-91
2022/02/24 00:28:23;;;;;;;7.65;2.97;;;;;;;;;;5035421;28;20117;-88
2022/02/24 00:30:50;;;;;;;9.63;3.08;;;;;;;7.32;84.17;67582.59;5028881;28;20262;-89
2022/02/24 00:33:16;;;;;;;7.78;3.03;;;;;;;7.32;83.86;67582.59;5031200;28;20095;-89
2022/02/24 00:35:41;;;;;;;11.15;3.53;;;;;;;7.32;83.08;67587.91;5033915;28;20068;-85
2022/02/24 00:38:14;;;;;;;10.30;4.05;;;;;;;7.34;83.82;67589.63;5025404;28;20048;-90
2022/02/24 00:44:13;;;;;;;12.20;3.17;;;;;;;;;;5049053;28;20060;-91
2022/02/24 00:46:39;;;;;;;10.30;3.15;;;;;;;;;;5028900;28;20040;-92
2022/02/24 00:49:05;;;;;;;10.43;3.80;;;;;;;;;;5024744;28;20067;-90
2022/02/24 00:51:30;;;;;;;9.32;3.25;;;;;;;7.37;82.39;67588.28;5033612;28;20068;-88
2022/02/24 00:53:55;;;;;;;9.15;2.85;;;;;;;;;;4997479;28;20506;-88
2022/02/24 00:56:21;;;;;;;7.55;2.63;;;;;;;7.35;80.11;67590.72;5019538;28;20461;-86
2022/02/24 00:58:46;;;;;;;9.40;2.83;;;;;;;7.34;80.07;67589.63;5012314;28;20037;-87
2022/02/24 01:01:11;;;;;;;14.30;3.20;;;;;;;;;;4999916;28;20041;-88
2022/02/24 01:03:37;;;;;;;11.80;3.67;;;;;;;7.34;83.33;67592.25;5024426;28;20042;-87
2022/02/24 01:06:02;;;;;;;10.82;3.25;;;;;;;7.27;82.29;67576.94;5018091;28;20319;-86
2022/02/24 01:08:28;;;;;;;12.93;3.55;;;;;;;7.28;84.15;67582.81;5061844;28;20045;-85
2022/02/24 01:10:53;;;;;;;11.00;3.13;;;;;;;7.27;81.80;67581.69;5004000;28;20041;-87
2022/02/24 01:13:19;;;;;;;13.98;3.92;;;;;;;7.29;82.88;67587.16;5031358;28;20041;-88
2022/02/24 01:15:44;;;;;;;11.00;3.35;;;;;;;7.29;83.18;67578.66;5040322;28;20036;-89
2022/02/24 01:18:10;;;;;;;7.40;2.45;;;;;;;;;;5045670;28;20113;-86
2022/02/24 01:20:35;;;;;;;11.13;2.90;;;;;;;;;;5067137;28;20067;-90
2022/02/24 01:23:01;;;;;;;11.75;3.30;;;;;;;7.21;82.84;67575.44;5035952;28;20120;-89
2022/02/24 01:25:26;;;;;;;9.52;3.42;;;;;;;7.22;85.42;67576.56;5019083;28;20047;-87
2022/02/24 01:27:52;;;;;;;14.73;3.47;;;;;;;7.19;84.53;67567.88;5046350;28;20048;-88
2022/02/24 01:30:18;;;;;;;12.65;3.25;;;;;;;7.17;84.39;67566.19;5064818;28;20044;-89
2022/02/24 01:32:44;;;;;;;10.07;3.35;;;;;;;7.18;84.22;67572.63;5017601;28;20413;-88
2022/02/24 01:35:09;;;;;;;9.30;3.75;;;;;;;;;;5023520;28;20040;-91
2022/02/24 01:37:35;;;;;;;8.65;3.25;;;;;;;7.17;85.31;67565.66;5021687;28;20134;-91
2022/02/24 01:40:00;;;;;;;12.27;3.95;;;;;;;7.18;86.30;67577.91;5026302;28;20040;-89
2022/02/24 01:42:26;;;;;;;18.17;3.30;;;;;;;7.17;85.06;67565.66;5043806;28;20051;-92
2022/02/24 01:44:51;;;;;;;10.88;3.80;;;;;;;7.18;85.55;67566.75;5055654;28;20043;-85
2022/02/24 01:47:17;;;;;;;9.55;3.88;;;;;;;7.19;86.43;67575.84;5031567;28;20060;-90
2022/02/24 01:49:43;;;;;;;10.43;3.78;;;;;;;7.18;85.51;67566.75;5041453;28;20041;-87
2022/02/24 01:52:10;;;;;;;10.52;3.13;;;;;;;7.18;85.98;67572.06;5059048;28;20432;-86
2022/02/24 01:54:37;;;;;;;13.65;4.22;;;;;;;7.16;84.84;67569.78;5056009;28;20059;-89
2022/02/24 01:57:04;;;;;;;11.07;3.47;;;;;;;7.17;84.32;67570.94;5034704;28;20572;-89
2022/02/24 01:59:30;;;;;;;11.05;3.42;;;;;;;7.17;84.70;67566.19;5055580;28;20041;-88
2022/02/24 02:01:56;;;;;;;13.45;3.83;;;;;;;7.19;85.19;67568.47;5066655;28;20037;-85
2022/02/24 02:04:22;;;;;;;7.65;3.25;;;;;;;;;;5045846;28;20524;-88
2022/02/24 02:06:47;;;;;;;11.75;3.25;;;;;;;;;;5038584;28;20041;-91
2022/02/24 02:09:13;;;;;;;12.18;3.35;;;;;;;;;;5065754;28;20135;-85
2022/02/24 02:11:38;;;;;;;13.63;4.03;;;;;;;;;;5046846;28;20048;-88
2022/02/24 02:14:04;;;;;;;9.45;4.00;;;;;;;7.18;85.25;67567.31;5041063;28;20450;-90
2022/02/24 02:16:29;;;;;;;9.68;3.40;;;;;;;7.14;84.59;67562.81;5039858;28;20514;-89
2022/02/24 02:18:55;;;;;;;10.77;4.55;;;;;;;7.15;84.44;67568.66;5049089;28;20028;-85
2022/02/24 02:21:20;;;;;;;13.23;3.38;;;;;;;7.16;84.86;67573.03;5046716;28;20052;-88
2022/02/24 02:23:46;;;;;;;9.05;3.83;;;;;;;7.15;84.80;67569.22;5024661;28;20511;-86
2022/02/24 02:26:11;;;;;;;10.43;3.97;;;;;;;;;;5036539;28;20131;-84
2022/02/24 02:28:37;;;;;;;11.82;4.38;;;;;;;;;;5050607;28;20044;-84
2022/02/24 02:31:03;;;;;;;10.73;3.60;;;;;;;7.14;85.06;67568.09;5052193;28;20075;-86
2022/02/24 02:33:28;;;;;;;12.20;4.15;;;;;;;7.10;84.08;67566.22;5025231;28;20628;-85
2022/02/24 02:35:53;;;;;;;11.23;3.70;;;;;;;7.10;84.41;67563.00;5034398;28;20044;-87
2022/02/24 02:38:19;;;;;;;11.65;3.60;;;;;;;;;;5018872;28;20059;-89
2022/02/24 02:40:44;;;;;;;11.45;3.65;;;;;;;7.10;83.98;67558.28;5032059;28;20044;-91
2022/02/24 02:43:10;;;;;;;9.65;3.95;;;;;;;7.12;82.78;67559.97;5040585;28;20066;-89
2022/02/24 02:45:37;;;;;;;12.77;3.58;;;;;;;7.13;82.00;67566.41;5047496;28;20102;-91
2022/02/24 02:48:03;;;;;;;10.82;4.88;;;;;;;;;;5028281;28;20536;-88
2022/02/24 02:50:29;;;;;;;10.65;3.83;;;;;;;7.13;83.49;67566.41;5055573;28;20076;-87
2022/02/24 02:52:55;;;;;;;10.68;3.63;;;;;;;;;;5037025;28;20069;-91
2022/02/24 02:55:21;;;;;;;10.13;4.10;;;;;;;7.09;83.24;67561.88;5028138;28;20578;-89
2022/02/24 02:57:48;;;;;;;8.13;3.72;;;;;;;7.08;82.64;67560.72;5016281;28;20049;-85
2022/02/24 03:00:17;;;;;;;12.98;3.97;;;;;;;;;;5045215;28;20429;-87
2022/02/24 03:02:44;;;;;;;13.05;3.58;;;;;;;;;;5033647;28;20381;-89
2022/02/24 03:05:11;;;;;;;9.60;3.40;;;;;;;;;;5039392;28;20073;-89
2022/02/24 03:07:36;;;;;;;9.38;4.32;;;;;;;7.07;84.09;67560.19;5052532;28;20045;-89
2022/02/24 03:10:04;;;;;;;9.68;3.95;;;;;;;7.06;82.30;67553.19;5015282;28;20060;-88
2022/02/24 03:12:35;;;;;;;12.57;5.15;;;;;;;;;;5028801;28;20053;-88
2022/02/24 03:15:03;;;;;;;11.52;4.38;;;;;;;7.07;83.44;67554.88;5027114;28;20090;-88
2022/02/24 03:17:29;;;;;;;14.23;4.57;;;;;;;;;;5037864;28;20047;-86
2022/02/24 03:19:55;;;;;;;11.10;4.18;;;;;;;;;;5020416;28;20045;-85
2022/02/24 03:22:21;;;;;;;14.48;4.43;;;;;;;7.01;84.63;67553.38;5029163;28;20136;-86
2022/02/24 03:24:51;;;;;;;13.05;4.20;;;;;;;;;;5026830;28;20128;-88
2022/02/24 03:27:17;;;;;;;7.65;4.05;;;;;;;;;;5020895;28;20122;-88
2022/02/24 03:29:42;;;;;;;12.60;3.75;;;;;;;6.94;81.37;67546.03;5011750;28;20123;-86
2022/02/24 03:32:14;;;;;;;13.57;3.70;;;;;;;6.98;82.93;67550.00;5012151;28;20068;-88
2022/02/24 03:34:40;;;;;;;12.25;3.63;;;;;;;6.95;82.54;67547.16;5014682;28;20060;-87
2022/02/24 03:37:05;;;;;;;12.80;3.58;;;;;;;;;;5026640;28;20129;-87
2022/02/24 03:39:31;;;;;;;9.35;4.47;;;;;;;6.94;83.92;67548.69;5013785;28;20132;-86
2022/02/24 03:41:56;;;;;;;11.00;4.50;;;;;;;6.94;84.67;67548.13;5027022;28;20079;-84
2022/02/24 03:44:22;;;;;;;12.98;4.53;;;;;;;6.95;85.83;67546.59;5005555;28;20056;-87
2022/02/24 03:46:54;;;;;;;15.40;4.80;;;;;;;6.92;85.48;67543.78;4974174;28;20234;-89
2022/02/24 03:49:23;;;;;;;12.25;4.13;;;;;;;;;;5007023;28;20049;-87
2022/02/24 03:51:50;;;;;;;14.90;3.85;;;;;;;6.88;85.98;67539.25;5007783;28;20050;-84
2022/02/24 03:54:16;;;;;;;12.27;3.63;;;;;;;;;;4996738;28;20033;-87
2022/02/24 03:56:42;;;;;;;14.88;4.45;;;;;;;6.88;87.12;67533.97;5016896;28;20048;-85
2022/02/24 03:59:14;;;;;;;11.38;4.65;;;;;;;6.84;86.82;67528.88;5026242;28;20487;-87
2022/02/24 04:01:41;;;;;;;11.30;4.25;;;;;;;6.84;86.25;67529.44;5023271;28;20041;-88
2022/02/24 04:04:07;;;;;;;13.88;4.88;;;;;;;6.86;87.92;67536.44;5003032;28;20084;-84
2022/02/24 04:06:33;;;;;;;16.60;5.72;;;;;;;6.89;88.30;67540.38;5033277;28;20472;-85
2022/02/24 04:08:58;;;;;;;15.77;4.60;;;;;;;6.87;86.55;67537.53;5030235;28;20091;-91
2022/02/24 04:11:23;;;;;;;11.05;3.58;;;;;;;6.87;86.76;67538.09;5029341;28;20068;-89
2022/02/24 04:13:49;;;;;;;11.50;4.00;;;;;;;6.87;86.87;67538.09;5012834;28;20065;-88
2022/02/24 04:16:14;;;;;;;15.18;4.82;;;;;;;6.88;86.95;67539.25;5031995;28;20120;-90
2022/02/24 04:18:40;;;;;;;10.80;3.75;;;;;;;6.87;86.39;67532.81;5030173;28;20054;-87
2022/02/24 04:21:06;;;;;;;9.90;3.50;;;;;;;6.90;86.33;67540.94;5003849;28;20037;-88
2022/02/24 04:23:32;;;;;;;10.50;3.33;;;;;;;;;;5016396;28;20493;-93
2022/02/24 04:26:06;;;;;;;10.23;3.00;;;;;;;6.93;85.55;67549.63;5039632;28;20041;-89
2022/02/24 04:28:31;;;;;;;13.27;3.70;;;;;;;6.93;85.40;67539.03;5030544;28;20085;-90
2022/02/24 04:30:57;;;;;;;11.60;3.40;;;;;;;6.95;86.52;67546.59;5001036;28;20552;-90
2022/02/24 04:33:22;;;;;;;10.95;4.43;;;;;;;6.93;86.84;67544.91;5006279;28;20062;-86
2022/02/24 04:35:47;;;;;;;15.43;3.97;;;;;;;;;;5024390;28;20041;-85
2022/02/24 04:38:13;;;;;;;13.25;4.68;;;;;;;6.96;87.03;67548.31;5026752;28;20207;-86
2022/02/24 04:40:38;;;;;;;12.05;4.50;;;;;;;6.94;87.21;67545.47;5028552;28;20041;-86
2022/02/24 04:43:05;;;;;;;10.30;3.88;;;;;;;;;;5016110;28;20512;-88
2022/02/24 04:45:31;;;;;;;15.07;4.60;;;;;;;;;;5003518;28;20034;-87
2022/02/24 04:47:56;;;;;;;12.07;4.20;;;;;;;6.93;88.04;67536.97;5019143;28;20074;-88
2022/02/24 04:50:25;;;;;;;14.20;4.68;;;;;;;;;;4989660;28;20497;-89
2022/02/24 04:52:52;;;;;;;13.65;4.25;;;;;;;;;;5031631;28;20098;-88
2022/02/24 04:55:23;;;;;;;12.55;3.67;;;;;;;;;;5015174;28;20056;-85
2022/02/24 04:57:56;;;;;;;14.68;3.65;;;;;;;;;;5052222;28;20106;-89
2022/02/24 05:00:21;;;;;;;10.63;3.75;;;;;;;;;;5028759;28;20049;-87
2022/02/24 05:02:47;;;;;;;13.10;4.10;;;;;;;6.90;90.96;67536.22;5007920;28;20038;-89
2022/02/24 05:05:12;;;;;;;10.90;3.72;;;;;;;6.88;90.12;67541.91;5003232;28;20305;-91
2022/02/24 05:07:38;;;;;;;12.57;4.20;;;;;;;6.86;90.18;67537.00;4993488;28;20498;-90
2022/02/24 05:10:04;;;;;;;8.57;3.40;;;;;;;6.85;90.17;67540.56;5003141;28;20045;-88
2022/02/24 05:12:29;;;;;;;11.35;4.10;;;;;;;6.86;90.48;67531.13;5016482;28;20505;-90
2022/02/24 05:14:55;;;;;;;11.10;3.65;;;;;;;;;;5010529;28;20038;-91
2022/02/24 05:17:28;;;;;;;14.07;4.05;;;;;;;;;;5035204;28;20053;-90
2022/02/24 05:19:53;;;;;;;11.93;3.92;;;;;;;;;;5010522;28;20048;-88
2022/02/24 05:22:19;;;;;;;13.13;4.20;;;;;;;6.83;90.44;67533.03;5015237;28;20037;-87
2022/02/24 05:24:44;;;;;;;19.48;4.60;;;;;;;6.83;89.87;67538.88;5020285;28;20064;-89
2022/02/24 05:27:10;;;;;;;9.13;3.80;;;;;;;6.87;88.95;67540.75;5010733;28;20379;-86
2022/02/24 05:29:35;;;;;;;11.93;3.75;;;;;;;6.87;89.40;67538.09;4999829;28;20405;-88
2022/02/24 05:32:09;;;;;;;11.05;4.18;;;;;;;6.88;88.82;67539.25;5033138;28;20071;-90
2022/02/24 05:34:46;;;;;;;9.85;3.95;;;;;;;;;;4999318;28;20398;-90
2022/02/24 05:37:26;;;;;;;11.07;4.47;;;;;;;6.90;87.98;67540.94;4998233;28;20042;-92
2022/02/24 05:39:55;;;;;;;13.73;3.78;;;;;;;6.91;87.56;67545.28;5029976;28;20064;-88
2022/02/24 05:42:21;;;;;;;;;;;;;;;6.92;87.55;67535.84;5027766;28;20049;-88
2022/02/24 05:44:56;;;;;;;11.75;3.85;;;;;;;6.84;87.76;67529.44;5034360;28;19923;-89
2022/02/24 05:47:24;;;;;;;9.85;3.03;;;;;;;;;;5033526;28;20045;-89
2022/02/24 05:50:08;;;;;;;11.43;4.47;;;;;;;;;;4997237;28;20076;-91
2022/02/24 05:52:34;;;;;;;14.13;4.50;;;;;;;;;;5006221;28;20050;-90
2022/02/24 05:54:59;;;;;;;11.05;4.60;;;;;;;;;;5011328;28;20816;-90
2022/02/24 05:57:26;;;;;;;9.23;3.72;;;;;;;6.85;90.01;67535.28;5000806;28;20041;-89
2022/02/24 06:00:00;;;;;;;15.57;4.35;;;;;;;6.82;90.25;67527.19;5008731;28;20209;-90
2022/02/24 06:02:35;;;;;;;14.15;4.38;;;;;;;6.82;91.29;67527.19;5016674;28;20501;-91
2022/02/24 06:05:03;;;;;;;11.38;4.65;;;;;;;;;;5035906;28;20052;-89
2022/02/24 06:07:30;;;;;;;12.27;3.72;;;;;;;;;;5034384;28;20096;-90
2022/02/24 06:09:56;;;;;;;11.30;3.58;;;;;;;6.81;92.52;67530.75;5051943;28;20045;-87
2022/02/24 06:12:22;;;;;;;13.95;4.18;;;;;;;6.78;92.06;67528.50;4993656;28;20045;-89
2022/02/24 06:14:47;;;;;;;9.65;3.47;;;;;;;;;;4991767;28;20038;-91
2022/02/24 06:17:13;;;;;;;9.48;4.40;;;;;;;6.82;91.87;67527.19;4963534;28;20061;-86
2022/02/24 06:19:40;;;;;;;8.32;3.42;;;;;;;6.79;90.89;67529.06;4972661;28;20046;-87
2022/02/24 06:22:05;;;;;;;9.07;3.70;;;;;;;6.81;91.61;67531.31;4959527;28;20042;-90
2022/02/24 06:24:31;;;;;;;12.55;4.15;;;;;;;6.82;91.69;67531.88;4961114;28;20048;-89
2022/02/24 06:26:57;;;;;;;12.80;4.28;;;;;;;;;;4947062;28;20073;-93
2022/02/24 06:29:22;;;;;;;11.98;3.92;;;;;;;6.81;92.30;67525.47;4972116;28;20218;-88
2022/02/24 06:31:47;;;;;;;14.25;4.78;;;;;;;;;;4963106;28;20050;-89
2022/02/24 06:34:14;;;;;;;13.98;4.13;;;;;;;6.81;92.22;67531.31;4964214;28;20065;-87
2022/02/24 06:36:39;;;;;;;11.52;4.60;;;;;;;6.84;92.85;67534.16;4982400;28;20237;-92
2022/02/24 06:39:04;;;;;;;17.02;3.67;;;;;;;;;;4957730;28;20417;-90
2022/02/24 06:41:31;;;;;;;9.93;4.20;;;;;;;6.81;91.81;67531.31;5007706;28;20411;-89
2022/02/24 06:43:56;;;;;;;9.55;3.67;;;;;;;6.83;91.90;67525.09;5011520;28;20072;-87
2022/02/24 06:46:22;;;;;;;10.73;3.97;;;;;;;6.83;92.79;67533.59;5036576;28;20056;-87
2022/02/24 06:48:48;;;;;;;10.48;4.60;;;;;;;6.83;92.67;67528.31;5038212;28;20091;-89
2022/02/24 06:51:13;;;;;;;13.73;4.65;;;;;;;6.83;92.28;67533.59;5032770;28;21803;-89
2022/02/24 06:53:39;;;;;;;15.68;3.60;;;;;;;6.81;91.65;67531.31;5013878;28;20123;-87
2022/02/24 06:56:04;;;;;;;9.02;3.50;;;;;;;6.82;91.96;67532.47;5027863;28;20048;-89
2022/02/24 06:58:30;;;;;;;12.57;4.28;;;;;;;6.82;91.85;67532.47;5043031;28;20036;-86
2022/02/24 07:00:58;;;;;;;11.73;3.42;;;;;;;6.84;91.42;67534.16;5036228;28;20072;-89
2022/02/24 07:03:24;;;;;;;12.53;3.40;;;;;;;;;;5043155;28;20097;-87
2022/02/24 07:05:50;;;;;;;12.27;3.45;;;;;;;6.81;91.56;67531.31;5033225;28;20049;-86
2022/02/24 07:08:22;;;;;;;11.68;3.78;;;;;;;;;;5034514;28;20485;-86
2022/02/24 07:10:47;;;;;;;16.95;4.10;;;;;;;6.81;92.21;67531.31;5012142;28;20053;-86
2022/02/24 07:13:13;;;;;;;9.95;3.63;;;;;;;6.78;92.30;67527.94;5030270;28;20069;-86
2022/02/24 07:15:38;;;;;;;13.10;3.70;;;;;;;;;;5021122;28;20071;-86
2022/02/24 07:18:04;;;;;;;15.45;4.20;;;;;;;6.77;91.80;67526.81;5012862;28;20077;-86
2022/02/24 07:20:29;;;;;;;16.30;4.95;;;;;;;;;;5023816;28;20048;-85
2022/02/24 07:22:55;;;;;;;12.55;4.45;;;;;;;;;;5037963;28;20060;-87
2022/02/24 07:25:23;;;;;;;11.48;3.28;;;;;;;6.84;91.93;67534.16;5032558;28;20049;-86
2022/02/24 07:27:50;;;;;;;17.15;3.78;;;;;;;;;;5039802;28;20449;-86
2022/02/24 07:30:15;;;;;;;13.65;4.00;;;;;;;6.87;92.17;67538.09;5054333;28;20052;-88
2022/02/24 07:32:42;;;;;;;12.00;4.03;;;;;;;6.89;92.53;67540.38;5031696;28;20376;-85
2022/02/24 07:35:09;;;;;;;13.07;4.00;;;;;;;6.89;91.46;67539.81;5034644;28;20138;-88
2022/02/24 07:37:34;;;;;;;15.70;4.57;;;;;;;;;;5034529;28;20108;-87
2022/02/24 07:40:01;;;;;;;11.65;4.18;;;;;;;6.91;91.83;67537.34;5036582;28;20045;-85
2022/02/24 07:42:28;;;;;;;11.52;3.67;;;;;;;6.93;92.68;67544.34;5037543;28;20114;-86
2022/02/24 07:44:54;;;;;;;12.15;4.35;;;;;;;6.94;92.56;67540.19;5035593;28;20091;-86
2022/02/24 07:47:28;;;;;;;12.20;4.38;;;;;;;;;;5030342;28;20495;-86
2022/02/24 07:49:56;;;;;;;13.65;3.72;;;;;;;6.93;91.77;67544.91;5031863;28;20068;-86
2022/02/24 07:52:23;;;;;;;10.82;3.38;;;;;;;6.96;91.37;67547.72;5042290;28;20079;-86
2022/02/24 07:54:50;;;;;;;9.30;3.78;;;;;;;6.97;92.03;67548.88;5032150;28;20079;-86
2022/02/24 07:57:17;;;;;;;11.82;4.47;;;;;;;6.98;92.08;67553.19;5036754;28;20045;-86
2022/02/24 07:59:43;;;;;;;10.80;3.78;;;;;;;;;;5019124;28;20081;-85
2022/02/24 08:02:09;;;;;;;10.70;4.70;;;;;;;7.05;92.82;67557.94;5024794;28;20053;-86
2022/02/24 08:04:35;;;;;;;11.70;3.30;;;;;;;7.05;91.67;67557.34;5026041;28;20072;-86
2022/02/24 08:07:03;;;;;;;16.45;4.50;;;;;;;7.06;90.82;67559.06;5033876;28;20521;-86
2022/02/24 08:09:29;;;;;;;8.45;2.75;;;;;;;;;;5029743;28;20045;-86
2022/02/24 08:12:39;;;;;;;12.05;3.95;;;;;;;7.11;90.92;67559.41;5034343;28;20080;-85
2022/02/24 08:14:52;;;;;;;13.88;3.05;;;;;;;7.13;89.56;67566.41;5015165;28;20038;-86
2022/02/24 08:17:19;;;;;;;10.10;2.90;;;;;;;7.15;89.22;67563.38;5035018;28;20045;-85
2022/02/24 08:19:48;;;;;;;10.73;3.58;;;;;;;7.18;90.27;67572.06;5030066;28;20054;-87
2022/02/24 08:22:13;;;;;;;11.48;2.72;;;;;;;7.19;89.80;67567.88;5028642;28;20060;-89
2022/02/24 08:24:39;;;;;;;6.15;2.80;;;;;;;7.18;89.20;67567.31;5036491;28;20048;-85
2022/02/24 08:27:05;;;;;;;6.75;2.85;;;;;;;7.15;89.81;67568.66;5017804;28;20048;-86
2022/02/24 08:29:30;;;;;;;14.38;3.17;;;;;;;;;;5016241;28;20064;-88
2022/02/24 08:31:59;;;;;;;7.50;3.50;;;;;;;7.16;90.03;67565.09;5030839;28;20049;-87
2022/02/24 08:34:25;;;;;;;13.77;3.42;;;;;;;;;;5036878;28;20052;-88
2022/02/24 08:36:52;;;;;;;10.52;3.10;;;;;;;7.16;89.45;67569.78;5038329;28;20041;-86
2022/02/24 08:39:19;;;;;;;14.90;3.95;;;;;;;;;;5026108;28;20042;-86
2022/02/24 08:41:45;;;;;;;9.65;3.78;;;;;;;7.16;88.23;67570.38;5035556;28;20045;-87
2022/02/24 08:44:11;;;;;;;9.10;3.15;;;;;;;7.17;88.01;67570.94;5029632;28;20038;-87
2022/02/24 08:46:37;;;;;;;7.35;3.05;;;;;;;7.14;87.13;67568.09;5037246;28;20051;-87
2022/02/24 08:49:02;;;;;;;8.60;2.65;;;;;;;7.14;86.40;67567.53;5038682;28;20069;-87
2022/02/24 08:51:28;;;;;;;11.93;2.75;;;;;;;;;;5030555;28;20045;-86
2022/02/24 08:53:53;;;;;;;8.15;2.88;;;;;;;7.15;86.26;67563.38;5038607;28;20060;-86
2022/02/24 08:56:19;;;;;;;7.55;2.72;;;;;;;7.15;86.91;67561.28;5032580;28;20124;-86
2022/02/24 08:58:44;;;;;;;10.10;2.85;;;;;;;7.16;86.42;67569.78;5036738;28;20061;-86
2022/02/24 09:01:10;;;;;;;10.68;3.58;;;;;;;7.18;86.62;67567.31;5046772;28;20037;-87
2022/02/24 09:03:35;;;;;;;12.32;2.80;;;;;;;;;;5052998;28;20272;-86
2022/02/24 09:06:01;;;;;;;13.45;3.30;;;;;;;7.26;87.84;67581.13;5037292;28;20042;-86
2022/02/24 09:08:27;;;;;;;14.57;3.75;;;;;;;7.28;86.89;67583.38;5042101;28;20133;-88
2022/02/24 09:10:52;;;;;;;8.82;2.33;;;;;;;7.29;85.65;67584.50;5021026;28;20045;-86
2022/02/24 09:13:18;;;;;;;9.20;2.78;;;;;;;7.31;85.56;67580.91;5052998;28;20195;-85
2022/02/24 09:15:43;;;;;;;6.70;2.30;;;;;;;;;;5046364;28;20049;-86
2022/02/24 09:18:09;;;;;;;8.82;2.00;;;;;;;7.38;85.56;67594.69;5044618;28;20219;-86
2022/02/24 09:20:34;;;;;;;8.93;2.60;;;;;;;7.44;85.25;67601.47;5048279;28;20052;-87
2022/02/24 09:23:00;;;;;;;8.57;2.30;;;;;;;7.50;84.40;67607.16;5045763;28;20473;-86
2022/02/24 09:25:26;;;;;;;9.10;2.30;;;;;;;7.52;83.25;67609.41;5041697;28;20114;-86
2022/02/24 09:27:52;;;;;;;5.90;2.08;;;;;;;7.62;83.39;67620.72;5058502;28;20067;-88
2022/02/24 09:30:17;;;;;;;6.70;2.08;;;;;;;;;;5050634;28;20105;-87
2022/02/24 09:32:43;;;;;;;7.95;2.30;;;;;;;7.68;82.28;67622.78;5035203;28;20317;-86
2022/02/24 09:35:09;;;;;;;9.35;2.35;;;;;;;;;;5030780;28;20060;-88
2022/02/24 09:37:36;;;;;;;6.15;1.98;;;;;;;;;;5030530;28;20041;-86
2022/02/24 09:40:07;;;;;;;10.88;1.98;;;;;;;7.75;81.52;67629.59;5052209;28;20033;-87
2022/02/24 09:42:34;;;;;;;7.93;2.22;;;;;;;;;;5046258;28;20501;-86
2022/02/24 09:44:59;;;;;;;6.72;1.77;;;;;;;;;;5049933;28;20068;-87
2022/02/24 09:47:26;;;;;;;5.88;1.40;;;;;;;;;;5051818;28;20052;-86
2022/02/24 09:49:55;;;;;;;6.28;1.52;;;;;;;7.80;79.39;67635.25;5055880;28;20044;-86
2022/02/24 09:52:20;;;;;;;6.63;1.92;;;;;;;7.85;80.68;67640.91;5042169;28;20131;-87
2022/02/24 09:54:46;;;;;;;7.28;2.22;;;;;;;;;;5034371;28;20192;-86
2022/02/24 09:57:11;;;;;;;6.78;1.83;;;;;;;7.87;79.80;67649.03;5041183;28;20095;-86
2022/02/24 09:59:37;;;;;;;6.30;1.52;;;;;;;7.95;80.43;67660.19;5035069;28;20046;-89
2022/02/24 10:02:03;;;;;;;8.90;1.70;;;;;;;;;;5038046;28;20045;-87
2022/02/24 10:04:29;;;;;;;9.02;2.10;;;;;;;8.02;80.08;67660.13;5044387;28;20037;-86
2022/02/24 10:06:55;;;;;;;5.72;1.17;;;;;;;8.03;78.15;67658.63;5027608;28;20042;-86
2022/02/24 10:09:33;;;;;;;8.35;1.92;;;;;;;8.11;79.59;67669.75;5049649;28;20494;-87
2022/02/24 10:12:11;;;;;;;8.60;2.67;;;;;;;;;;5046466;28;20040;-86
2022/02/24 10:14:38;;;;;;;7.25;2.38;;;;;;;8.14;79.35;67678.47;5047425;28;20092;-86
2022/02/24 10:17:05;;;;;;;8.25;2.25;;;;;;;8.18;78.92;67683.00;5054230;28;20048;-86
2022/02/24 10:19:44;;;;;;;8.82;2.25;;;;;;;8.22;77.96;67681.66;5063518;28;20083;-87
2022/02/24 10:22:26;;;;;;;6.80;1.80;;;;;;;8.22;77.73;67681.66;5053109;28;20141;-86
2022/02/24 10:25:06;;;;;;;5.45;1.60;;;;;;;8.23;78.35;67682.78;5046319;28;20045;-86
2022/02/24 10:27:32;;;;;;;6.70;2.15;;;;;;;;;;5071602;28;20061;-90
2022/02/24 10:30:09;;;;;;;6.70;2.10;;;;;;;;;;5041750;28;20049;-86
2022/02/24 10:32:38;;;;;;;9.25;2.20;;;;;;;8.23;78.13;67688.09;5043035;28;20040;-86
2022/02/24 10:35:22;;;;;;;9.23;3.10;;;;;;;;;;5047770;28;20071;-86
2022/02/24 10:37:58;;;;;;;9.23;2.28;;;;;;;8.30;78.48;67696.59;5023352;28;20094;-87
2022/02/24 10:40:25;;;;;;;12.65;3.03;;;;;;;8.37;79.08;67703.94;5047617;28;20114;-86
2022/02/24 10:42:51;;;;;;;3.63;1.95;;;;;;;;;;5044512;28;20055;-86
2022/02/24 10:45:21;;;;;;;7.75;2.60;;;;;;;8.46;79.53;67714.19;5045640;28;20045;-86
2022/02/24 10:48:03;;;;;;;6.25;1.85;;;;;;;8.48;78.13;67711.13;5042241;28;20044;-86
2022/02/24 10:50:49;;;;;;;10.90;2.42;;;;;;;;;;5049314;28;20044;-86
2022/02/24 10:53:16;;;;;;;10.20;2.95;;;;;;;8.58;78.96;67721.91;5035357;28;20473;-89
2022/02/24 10:56:05;;;;;;;10.32;3.15;;;;;;;8.65;80.65;67735.13;5044602;28;20050;-87
2022/02/24 10:58:40;;;;;;;9.23;2.70;;;;;;;8.75;79.89;67746.47;5038985;28;20034;-86
2022/02/24 11:01:08;;;;;;;11.82;3.25;;;;;;;8.82;78.76;67749.09;5038358;28;20034;-89
2022/02/24 11:03:35;;;;;;;7.97;1.65;;;;;;;8.79;76.59;67745.69;5041532;28;20037;-86
2022/02/24 11:06:04;;;;;;;14.23;2.67;;;;;;;;;;5033702;28;20553;-86
2022/02/24 11:08:30;;;;;;;12.90;3.13;;;;;;;;;;5040134;28;20270;-87
2022/02/24 11:10:57;;;;;;;7.60;2.17;;;;;;;9.00;77.24;67768.34;5034805;28;20114;-86
2022/02/24 11:13:24;;;;;;;8.70;2.40;;;;;;;8.98;76.25;67766.66;5028133;28;20038;-88
2022/02/24 11:15:54;;;;;;;6.75;1.98;;;;;;;9.05;75.04;67774.00;5033400;28;20057;-87
2022/02/24 11:18:27;;;;;;;10.07;2.05;;;;;;;9.20;76.61;67795.75;5034334;28;20091;-86
2022/02/24 11:20:56;;;;;;;10.45;2.40;;;;;;;9.33;75.22;67804.63;5030604;28;20037;-86
2022/02/24 11:23:27;;;;;;;10.48;2.33;;;;;;;;;;5030622;28;20095;-86
2022/02/24 11:26:00;;;;;;;8.88;2.50;;;;;;;9.36;76.66;67808.03;5035411;28;20053;-87
2022/02/24 11:28:28;;;;;;;8.80;2.17;;;;;;;;;;5034073;28;20053;-86
2022/02/24 11:31:00;;;;;;;10.38;2.63;;;;;;;9.35;75.09;67807.47;5034228;28;20071;-87
2022/02/24 11:33:28;;;;;;;10.23;2.42;;;;;;;9.36;75.72;67816.00;5032016;28;20128;-86
2022/02/24 11:36:08;;;;;;;5.90;1.90;;;;;;;;;;5038174;28;20053;-86
2022/02/24 11:38:36;;;;;;;6.53;2.22;;;;;;;;;;5034141;28;20041;-87
2022/02/24 11:41:09;;;;;;;10.05;2.63;;;;;;;;;;5036511;28;20037;-86
2022/02/24 11:43:36;;;;;;;7.85;2.28;;;;;;;9.60;75.04;67834.66;5039338;28;20051;-86
2022/02/24 11:46:10;;;;;;;7.82;1.80;;;;;;;9.55;73.74;67836.97;5035059;28;20034;-88
2022/02/24 11:48:36;;;;;;;7.13;2.03;;;;;;;9.55;74.48;67829.56;5029188;28;20175;-86
2022/02/24 11:51:07;;;;;;;7.55;1.63;;;;;;;;;;5022795;28;20539;-87
2022/02/24 11:53:33;;;;;;;6.45;2.08;;;;;;;;;;5039146;28;20040;-87
2022/02/24 11:56:18;;;;;;;8.98;2.13;;;;;;;;;;5034383;28;20079;-89
2022/02/24 11:59:04;;;;;;;8.15;1.98;;;;;;;9.72;73.66;67853.56;5031864;28;20108;-87
2022/02/24 12:01:41;;;;;;;8.52;2.00;;;;;;;9.80;72.89;67862.09;5040973;28;20048;-86
2022/02/24 12:04:25;;;;;;;8.82;2.40;;;;;;;9.90;72.96;67868.13;5032930;28;20112;-87
2022/02/24 12:06:51;;;;;;;6.88;1.70;;;;;;;9.83;72.49;67865.50;5046599;28;20049;-87
2022/02/24 12:09:21;;;;;;;9.88;2.25;;;;;;;;;;5048920;28;20098;-87
2022/02/24 12:11:59;;;;;;;3.83;1.45;;;;;;;9.75;70.87;67856.97;5035557;28;20042;-88
2022/02/24 12:14:28;;;;;;;7.18;1.45;;;;;;;9.69;71.33;67850.19;5045187;28;20037;-87
2022/02/24 12:17:06;;;;;;;6.78;2.22;;;;;;;;;;5048913;28;20076;-88
2022/02/24 12:19:39;;;;;;;6.38;1.25;;;;;;;;;;5038017;28;20049;-88
2022/02/24 12:22:32;;;;;;;7.72;1.67;;;;;;;9.82;73.20;67859.63;5031841;28;20037;-87
2022/02/24 12:25:09;;;;;;;7.93;1.60;;;;;;;;;;5032014;28;20044;-89
2022/02/24 12:27:55;;;;;;;10.90;2.30;;;;;;;9.96;69.73;67874.38;5031973;28;20073;-88
2022/02/24 12:30:25;;;;;;;7.13;1.30;;;;;;;;;;5040235;28;20045;-88
2022/02/24 12:33:05;;;;;;;5.28;1.55;;;;;;;9.97;69.17;67881.38;5045495;28;20083;-88